»·PEaware :: N410LT KYKM-KPDX

N410LT :: KYKM-KPDX

FLIGHT INFORMATION

Flight Status: Arrived
Operator: Privately registered:
United States
More flights under this callsign
Pilot: Douglas B. (28959)
Aircraft: Unknown
(EPIC)
More flights by this aircraft type
Origin: KYKM Yakima Air Term/Mcallister
United States
Destination: KPDX Portland Intl
United States
More flights between these airports :: More routes between these airports
Route: LTJ REEDI
File this flight plan on PilotEdge
Remarks:
Altitude:
(Current/Filed)
12,000ft
Speed:
(Current/Filed)
300kts
Departed: 26-Apr-20 01:57 PM
Arrived: 26-Apr-20 02:35 PM
Distance/Time
Traveled:
103nm/0:38
Distance/Time
To Go:
Arrived

Flight Plot

Page will automatically refresh every two minutes.


Map Options




Map Legend


Flown Route
Filed Route
Departure Airport
Arrival Airport
Navaid (VOR, NDB)
Fix

Horizontal Profiles

Position Reports

Time Latitude Longitude Heading Altitude Ground
Speed
26-Apr-20 13:27 46.569901 -120.537536 90 1058ft 0kts
26-Apr-20 13:28 46.569901 -120.537536 90 1058ft 0kts
26-Apr-20 13:29 46.569901 -120.537536 90 1058ft 0kts
26-Apr-20 13:30 46.569901 -120.537536 90 1058ft 0kts
26-Apr-20 13:31 46.569901 -120.537536 90 1058ft 0kts
26-Apr-20 13:32 46.569901 -120.537536 90 1058ft 0kts
26-Apr-20 13:33 46.569901 -120.537536 90 1058ft 0kts
26-Apr-20 13:34 46.569901 -120.537536 90 1058ft 0kts
26-Apr-20 13:35 46.569901 -120.537536 90 1058ft 0kts
26-Apr-20 13:36 46.569901 -120.537536 90 1058ft 0kts
26-Apr-20 13:37 46.569901 -120.537536 90 1058ft 0kts
26-Apr-20 13:38 46.569901 -120.537536 90 1058ft 0kts
26-Apr-20 13:39 46.569901 -120.537536 90 1058ft 0kts
26-Apr-20 13:40 46.569901 -120.537536 90 1058ft 0kts
26-Apr-20 13:41 46.569901 -120.537536 90 1058ft 0kts
26-Apr-20 13:42 46.569901 -120.537536 90 1058ft 0kts
26-Apr-20 13:43 46.569901 -120.537536 90 1058ft 0kts
26-Apr-20 13:44 46.569901 -120.537536 90 1058ft 0kts
26-Apr-20 13:45 46.569901 -120.537536 90 1058ft 0kts
26-Apr-20 13:46 46.569901 -120.537536 90 1058ft 0kts
26-Apr-20 13:47 46.569901 -120.537536 90 1058ft 0kts
26-Apr-20 13:48 46.569901 -120.537536 90 1058ft 0kts
26-Apr-20 13:49 46.569901 -120.537536 90 1058ft 0kts
26-Apr-20 13:50 46.569901 -120.537536 90 1058ft 0kts
26-Apr-20 13:51 46.569901 -120.537536 90 1058ft 0kts
26-Apr-20 13:52 46.569857 -120.537309 142 1058ft 5kts
26-Apr-20 13:53 46.570189 -120.534406 115 1052ft 0kts
26-Apr-20 13:54 46.570189 -120.534406 115 1052ft 0kts
26-Apr-20 13:55 46.569124 -120.535088 238 1053ft 0kts
26-Apr-20 13:56 46.557930 -120.561471 238 1651ft 171kts
26-Apr-20 13:57 46.569572 -120.619773 335 3737ft 197kts
26-Apr-20 13:58 46.618415 -120.652649 333 5716ft 201kts
26-Apr-20 13:59 46.648849 -120.706664 228 7784ft 199kts
26-Apr-20 14:00 46.588225 -120.707046 189 9712ft 240kts
26-Apr-20 14:01 46.516293 -120.734836 199 10019ft 275kts
26-Apr-20 14:02 46.443972 -120.768107 200 11866ft 250kts
26-Apr-20 14:03 46.368882 -120.802804 200 11987ft 288kts
26-Apr-20 14:04 46.290078 -120.839034 200 11982ft 288kts
26-Apr-20 14:05 46.211624 -120.874997 200 11977ft 287kts
26-Apr-20 14:06 46.134039 -120.910454 200 11976ft 280kts
26-Apr-20 14:07 46.058225 -120.945003 200 11978ft 276kts
26-Apr-20 14:08 45.983035 -120.979168 200 11986ft 275kts
26-Apr-20 14:09 45.908754 -121.012823 200 11992ft 274kts
26-Apr-20 14:10 45.833952 -121.046622 200 11979ft 274kts
26-Apr-20 14:11 45.759694 -121.080081 200 11963ft 274kts
26-Apr-20 14:12 45.704719 -121.147107 248 11984ft 268kts
26-Apr-20 14:13 45.681717 -121.249246 259 11975ft 263kts
26-Apr-20 14:14 45.670789 -121.354952 259 11977ft 260kts
26-Apr-20 14:15 45.659935 -121.459663 259 12009ft 259kts
26-Apr-20 14:16 45.649035 -121.564718 259 12006ft 259kts
26-Apr-20 14:17 45.638324 -121.668078 258 11992ft 252kts
26-Apr-20 14:18 45.627998 -121.768158 258 12011ft 246kts
26-Apr-20 14:19 45.618036 -121.865513 258 12007ft 232kts
26-Apr-20 14:20 45.614234 -121.955137 271 12009ft 217kts
26-Apr-20 14:21 45.622373 -122.041567 272 12011ft 222kts
26-Apr-20 14:22 45.631165 -122.133997 273 12003ft 234kts
26-Apr-20 14:23 45.640178 -122.229632 273 11293ft 248kts
26-Apr-20 14:25 45.649322 -122.327529 273 9918ft 244kts
26-Apr-20 14:26 45.658334 -122.425097 274 8571ft 243kts
26-Apr-20 14:27 45.667261 -122.522561 275 7108ft 247kts
26-Apr-20 14:28 45.676311 -122.622133 275 5469ft 253kts
26-Apr-20 14:29 45.685154 -122.720749 275 4024ft 231kts
26-Apr-20 14:30 45.664627 -122.780633 160 2795ft 204kts
26-Apr-20 14:31 45.638765 -122.718379 109 1682ft 175kts
26-Apr-20 14:32 45.620250 -122.661273 119 1323ft 143kts
26-Apr-20 14:33 45.606031 -122.624400 116 452ft 95kts
26-Apr-20 14:34 45.593795 -122.593073 120 39ft 80kts
26-Apr-20 14:35 45.589753 -122.582688 120 20ft 17kts
26-Apr-20 14:36 45.588820 -122.582055 202 20ft 0kts
26-Apr-20 14:37 45.588420 -122.582382 208 20ft 9kts
26-Apr-20 14:38 45.587007 -122.581505 121 20ft 12kts

Navigation Log

Ident Type
Flight plan parsing failed, navigation log unavailable